sensor_id;sensor_type;location;lat;lon;timestamp;pressure;altitude;pressure_sealevel;temperature;humidity
84024;BME280;74109;45.636;25.582;2024-01-06T00:00:51;94327.77;;;0.63;62.09
84024;BME280;74109;45.636;25.582;2024-01-06T00:03:39;94324.77;;;0.60;62.56
84024;BME280;74109;45.636;25.582;2024-01-06T00:06:11;94322.16;;;0.56;62.38
84024;BME280;74109;45.636;25.582;2024-01-06T00:08:40;94321.21;;;0.54;62.01
84024;BME280;74109;45.636;25.582;2024-01-06T00:11:09;94328.27;;;0.52;62.21
84024;BME280;74109;45.636;25.582;2024-01-06T00:13:38;94317.98;;;0.48;62.65
84024;BME280;74109;45.636;25.582;2024-01-06T00:16:06;94326.16;;;0.45;62.54
84024;BME280;74109;45.636;25.582;2024-01-06T00:18:34;94326.46;;;0.40;62.97
84024;BME280;74109;45.636;25.582;2024-01-06T00:21:03;94328.14;;;0.37;62.71
84024;BME280;74109;45.636;25.582;2024-01-06T00:23:31;94334.38;;;0.35;62.83
84024;BME280;74109;45.636;25.582;2024-01-06T00:25:59;94332.14;;;0.35;62.40
84024;BME280;74109;45.636;25.582;2024-01-06T00:28:28;94330.96;;;0.36;62.22
84024;BME280;74109;45.636;25.582;2024-01-06T00:30:56;94331.09;;;0.41;62.48
84024;BME280;74109;45.636;25.582;2024-01-06T00:33:24;94329.17;;;0.45;63.01
84024;BME280;74109;45.636;25.582;2024-01-06T00:35:52;94317.61;;;0.48;62.89
84024;BME280;74109;45.636;25.582;2024-01-06T00:38:22;94321.26;;;0.51;62.67
84024;BME280;74109;45.636;25.582;2024-01-06T00:40:51;94321.34;;;0.53;63.04
84024;BME280;74109;45.636;25.582;2024-01-06T00:43:19;94327.20;;;0.49;63.45
84024;BME280;74109;45.636;25.582;2024-01-06T00:45:47;94330.15;;;0.45;63.19
84024;BME280;74109;45.636;25.582;2024-01-06T00:48:15;94333.95;;;0.42;63.72
84024;BME280;74109;45.636;25.582;2024-01-06T00:50:44;94340.85;;;0.39;63.07
84024;BME280;74109;45.636;25.582;2024-01-06T00:53:12;94344.38;;;0.36;63.49
84024;BME280;74109;45.636;25.582;2024-01-06T00:55:40;94349.55;;;0.36;62.80
84024;BME280;74109;45.636;25.582;2024-01-06T00:58:08;94349.27;;;0.37;63.02
84024;BME280;74109;45.636;25.582;2024-01-06T01:00:37;94350.02;;;0.36;63.90
84024;BME280;74109;45.636;25.582;2024-01-06T01:03:05;94349.31;;;0.34;64.10
84024;BME280;74109;45.636;25.582;2024-01-06T01:05:33;94337.24;;;0.33;63.37
84024;BME280;74109;45.636;25.582;2024-01-06T01:08:02;94331.27;;;0.33;63.47
84024;BME280;74109;45.636;25.582;2024-01-06T01:10:30;94325.55;;;0.32;63.85
84024;BME280;74109;45.636;25.582;2024-01-06T01:12:58;94317.71;;;0.33;63.39
84024;BME280;74109;45.636;25.582;2024-01-06T01:15:26;94320.15;;;0.36;62.91
84024;BME280;74109;45.636;25.582;2024-01-06T01:17:55;94322.86;;;0.42;63.13
84024;BME280;74109;45.636;25.582;2024-01-06T01:20:23;94318.08;;;0.50;63.15
84024;BME280;74109;45.636;25.582;2024-01-06T01:22:51;94317.06;;;0.54;63.01
84024;BME280;74109;45.636;25.582;2024-01-06T01:25:19;94313.72;;;0.59;62.61
84024;BME280;74109;45.636;25.582;2024-01-06T01:27:47;94303.67;;;0.64;62.57
84024;BME280;74109;45.636;25.582;2024-01-06T01:30:16;94303.29;;;0.68;62.61
84024;BME280;74109;45.636;25.582;2024-01-06T01:32:44;94305.95;;;0.69;62.34
84024;BME280;74109;45.636;25.582;2024-01-06T01:35:13;94300.59;;;0.72;62.57
84024;BME280;74109;45.636;25.582;2024-01-06T01:37:41;94301.92;;;0.73;62.84
84024;BME280;74109;45.636;25.582;2024-01-06T01:40:10;94295.36;;;0.69;63.30
84024;BME280;74109;45.636;25.582;2024-01-06T01:42:38;94290.07;;;0.68;62.72
84024;BME280;74109;45.636;25.582;2024-01-06T01:45:06;94290.90;;;0.69;63.07
84024;BME280;74109;45.636;25.582;2024-01-06T01:47:37;94290.46;;;0.69;62.68
84024;BME280;74109;45.636;25.582;2024-01-06T01:50:06;94289.60;;;0.70;62.60
84024;BME280;74109;45.636;25.582;2024-01-06T01:52:36;94280.61;;;0.72;62.88
84024;BME280;74109;45.636;25.582;2024-01-06T01:55:04;94278.41;;;0.76;62.71
84024;BME280;74109;45.636;25.582;2024-01-06T01:57:33;94266.91;;;0.78;62.92
84024;BME280;74109;45.636;25.582;2024-01-06T02:00:02;94263.46;;;0.81;63.04
84024;BME280;74109;45.636;25.582;2024-01-06T02:02:38;94262.64;;;0.82;62.54
84024;BME280;74109;45.636;25.582;2024-01-06T02:05:07;94262.20;;;0.84;63.05
84024;BME280;74109;45.636;25.582;2024-01-06T02:07:35;94260.93;;;0.87;62.43
84024;BME280;74109;45.636;25.582;2024-01-06T02:10:04;94263.98;;;0.95;62.78
84024;BME280;74109;45.636;25.582;2024-01-06T02:12:32;94251.96;;;1.02;63.20
84024;BME280;74109;45.636;25.582;2024-01-06T02:15:00;94249.79;;;1.07;62.88
84024;BME280;74109;45.636;25.582;2024-01-06T02:17:28;94250.33;;;1.09;63.25
84024;BME280;74109;45.636;25.582;2024-01-06T02:19:56;94250.29;;;1.12;62.78
84024;BME280;74109;45.636;25.582;2024-01-06T02:22:25;94247.91;;;1.16;62.54
84024;BME280;74109;45.636;25.582;2024-01-06T02:24:53;94243.63;;;1.19;62.60
84024;BME280;74109;45.636;25.582;2024-01-06T02:27:21;94242.88;;;1.23;62.34
84024;BME280;74109;45.636;25.582;2024-01-06T02:29:50;94238.92;;;1.27;62.36
84024;BME280;74109;45.636;25.582;2024-01-06T02:32:18;94229.33;;;1.32;62.07
84024;BME280;74109;45.636;25.582;2024-01-06T02:34:46;94222.86;;;1.37;62.35
84024;BME280;74109;45.636;25.582;2024-01-06T02:37:14;94223.84;;;1.41;62.43
84024;BME280;74109;45.636;25.582;2024-01-06T02:39:42;94224.46;;;1.41;63.12
84024;BME280;74109;45.636;25.582;2024-01-06T02:42:11;94224.42;;;1.42;63.32
84024;BME280;74109;45.636;25.582;2024-01-06T02:44:39;94226.77;;;1.43;62.91
84024;BME280;74109;45.636;25.582;2024-01-06T02:47:07;94233.70;;;1.47;62.89
84024;BME280;74109;45.636;25.582;2024-01-06T02:49:35;94229.05;;;1.52;62.93
84024;BME280;74109;45.636;25.582;2024-01-06T02:52:04;94228.05;;;1.60;62.89
84024;BME280;74109;45.636;25.582;2024-01-06T02:54:32;94228.89;;;1.71;62.89
84024;BME280;74109;45.636;25.582;2024-01-06T02:57:00;94222.78;;;1.82;62.97
84024;BME280;74109;45.636;25.582;2024-01-06T02:59:28;94219.10;;;1.92;62.81
84024;BME280;74109;45.636;25.582;2024-01-06T03:01:57;94219.21;;;1.98;62.58
84024;BME280;74109;45.636;25.582;2024-01-06T03:04:25;94217.02;;;2.03;62.56
84024;BME280;74109;45.636;25.582;2024-01-06T03:06:53;94215.94;;;2.06;61.85
84024;BME280;74109;45.636;25.582;2024-01-06T03:09:22;94205.17;;;2.10;61.78
84024;BME280;74109;45.636;25.582;2024-01-06T03:11:50;94211.33;;;2.14;61.93
84024;BME280;74109;45.636;25.582;2024-01-06T03:14:18;94206.66;;;2.18;61.83
84024;BME280;74109;45.636;25.582;2024-01-06T03:16:46;94211.45;;;2.18;61.92
84024;BME280;74109;45.636;25.582;2024-01-06T03:19:14;94208.25;;;2.20;61.87
84024;BME280;74109;45.636;25.582;2024-01-06T03:21:43;94216.23;;;2.24;61.75
84024;BME280;74109;45.636;25.582;2024-01-06T03:24:11;94211.96;;;2.26;61.70
84024;BME280;74109;45.636;25.582;2024-01-06T03:26:39;94212.37;;;2.31;61.96
84024;BME280;74109;45.636;25.582;2024-01-06T03:29:07;94212.35;;;2.33;61.33
84024;BME280;74109;45.636;25.582;2024-01-06T03:31:36;94205.64;;;2.36;61.27
84024;BME280;74109;45.636;25.582;2024-01-06T03:34:04;94198.19;;;2.38;61.48
84024;BME280;74109;45.636;25.582;2024-01-06T03:36:32;94195.06;;;2.41;61.46
84024;BME280;74109;45.636;25.582;2024-01-06T03:39:00;94186.64;;;2.45;61.40
84024;BME280;74109;45.636;25.582;2024-01-06T03:41:29;94175.42;;;2.50;61.43
84024;BME280;74109;45.636;25.582;2024-01-06T03:43:57;94169.50;;;2.52;61.72
84024;BME280;74109;45.636;25.582;2024-01-06T03:46:25;94168.88;;;2.55;61.61
84024;BME280;74109;45.636;25.582;2024-01-06T03:48:53;94184.95;;;2.54;62.08
84024;BME280;74109;45.636;25.582;2024-01-06T03:51:22;94197.83;;;2.56;61.83
84024;BME280;74109;45.636;25.582;2024-01-06T03:53:51;94196.27;;;2.60;61.97
84024;BME280;74109;45.636;25.582;2024-01-06T03:56:19;94177.42;;;2.64;61.55
84024;BME280;74109;45.636;25.582;2024-01-06T03:58:48;94187.64;;;2.67;61.27
84024;BME280;74109;45.636;25.582;2024-01-06T04:01:16;94192.64;;;2.72;61.27
84024;BME280;74109;45.636;25.582;2024-01-06T04:03:44;94186.67;;;2.76;60.57
84024;BME280;74109;45.636;25.582;2024-01-06T04:06:12;94184.31;;;2.79;60.66
84024;BME280;74109;45.636;25.582;2024-01-06T04:08:41;94176.64;;;2.83;60.70
84024;BME280;74109;45.636;25.582;2024-01-06T04:11:09;94179.60;;;2.86;60.39
84024;BME280;74109;45.636;25.582;2024-01-06T04:13:37;94175.37;;;2.87;60.37
84024;BME280;74109;45.636;25.582;2024-01-06T04:16:05;94184.27;;;2.85;60.39
84024;BME280;74109;45.636;25.582;2024-01-06T04:18:34;94191.81;;;2.86;60.43
84024;BME280;74109;45.636;25.582;2024-01-06T04:21:02;94194.27;;;2.86;60.52
84024;BME280;74109;45.636;25.582;2024-01-06T04:23:31;94195.73;;;2.83;60.25
84024;BME280;74109;45.636;25.582;2024-01-06T04:25:59;94189.46;;;2.84;60.36
84024;BME280;74109;45.636;25.582;2024-01-06T04:28:27;94187.13;;;2.85;60.22
84024;BME280;74109;45.636;25.582;2024-01-06T04:30:55;94190.92;;;2.85;60.44
84024;BME280;74109;45.636;25.582;2024-01-06T04:33:24;94175.14;;;2.86;60.54
84024;BME280;74109;45.636;25.582;2024-01-06T04:35:52;94169.85;;;2.84;60.59
84024;BME280;74109;45.636;25.582;2024-01-06T04:38:20;94177.52;;;2.87;60.59
84024;BME280;74109;45.636;25.582;2024-01-06T04:40:48;94174.17;;;2.88;60.90
84024;BME280;74109;45.636;25.582;2024-01-06T04:43:16;94176.80;;;2.89;60.74
84024;BME280;74109;45.636;25.582;2024-01-06T04:45:44;94180.56;;;2.90;60.88
84024;BME280;74109;45.636;25.582;2024-01-06T04:48:13;94174.09;;;2.89;60.54
84024;BME280;74109;45.636;25.582;2024-01-06T04:50:41;94165.85;;;2.90;60.43
84024;BME280;74109;45.636;25.582;2024-01-06T04:53:09;94174.73;;;2.97;61.03
84024;BME280;74109;45.636;25.582;2024-01-06T04:55:37;94180.25;;;3.04;61.21
84024;BME280;74109;45.636;25.582;2024-01-06T04:58:06;94180.30;;;3.07;61.01
84024;BME280;74109;45.636;25.582;2024-01-06T05:00:34;94179.10;;;3.06;60.85
84024;BME280;74109;45.636;25.582;2024-01-06T05:03:04;94185.45;;;3.07;60.49
84024;BME280;74109;45.636;25.582;2024-01-06T05:05:32;94185.98;;;3.07;60.45
84024;BME280;74109;45.636;25.582;2024-01-06T05:08:00;94176.21;;;3.10;60.38
84024;BME280;74109;45.636;25.582;2024-01-06T05:10:29;94177.09;;;3.09;60.76
84024;BME280;74109;45.636;25.582;2024-01-06T05:12:57;94184.52;;;3.06;60.55
84024;BME280;74109;45.636;25.582;2024-01-06T05:15:25;94170.65;;;3.01;60.47
84024;BME280;74109;45.636;25.582;2024-01-06T05:17:54;94176.25;;;2.96;60.61
84024;BME280;74109;45.636;25.582;2024-01-06T05:20:23;94178.30;;;2.92;60.63
84024;BME280;74109;45.636;25.582;2024-01-06T05:22:51;94180.96;;;2.89;60.59
84024;BME280;74109;45.636;25.582;2024-01-06T05:25:19;94180.99;;;2.87;60.55
84024;BME280;74109;45.636;25.582;2024-01-06T05:27:47;94177.10;;;2.84;60.90
84024;BME280;74109;45.636;25.582;2024-01-06T05:30:16;94175.29;;;2.79;60.99
84024;BME280;74109;45.636;25.582;2024-01-06T05:32:44;94178.20;;;2.75;61.04
84024;BME280;74109;45.636;25.582;2024-01-06T05:35:12;94172.42;;;2.72;61.24
84024;BME280;74109;45.636;25.582;2024-01-06T05:37:40;94179.26;;;2.69;61.20
84024;BME280;74109;45.636;25.582;2024-01-06T05:40:09;94177.66;;;2.67;61.37
84024;BME280;74109;45.636;25.582;2024-01-06T05:42:37;94176.78;;;2.63;61.25
84024;BME280;74109;45.636;25.582;2024-01-06T05:45:05;94179.82;;;2.60;61.24
84024;BME280;74109;45.636;25.582;2024-01-06T05:47:34;94181.44;;;2.58;61.55
84024;BME280;74109;45.636;25.582;2024-01-06T05:50:02;94173.98;;;2.53;62.28
84024;BME280;74109;45.636;25.582;2024-01-06T05:52:30;94175.41;;;2.47;61.77
84024;BME280;74109;45.636;25.582;2024-01-06T05:54:58;94169.26;;;2.45;61.55
84024;BME280;74109;45.636;25.582;2024-01-06T05:57:27;94167.71;;;2.46;61.92
84024;BME280;74109;45.636;25.582;2024-01-06T05:59:55;94168.28;;;2.45;63.26
84024;BME280;74109;45.636;25.582;2024-01-06T06:02:23;94173.33;;;2.43;62.80
84024;BME280;74109;45.636;25.582;2024-01-06T06:04:51;94168.77;;;2.43;62.27
84024;BME280;74109;45.636;25.582;2024-01-06T06:07:20;94164.85;;;2.41;62.21
84024;BME280;74109;45.636;25.582;2024-01-06T06:09:48;94158.33;;;2.41;62.06
84024;BME280;74109;45.636;25.582;2024-01-06T06:12:16;94157.77;;;2.41;62.37
84024;BME280;74109;45.636;25.582;2024-01-06T06:14:45;94155.33;;;2.41;62.27
84024;BME280;74109;45.636;25.582;2024-01-06T06:17:13;94159.70;;;2.44;62.19
84024;BME280;74109;45.636;25.582;2024-01-06T06:19:41;94153.83;;;2.47;62.32
84024;BME280;74109;45.636;25.582;2024-01-06T06:22:10;94154.54;;;2.51;62.04
84024;BME280;74109;45.636;25.582;2024-01-06T06:24:38;94152.70;;;2.49;62.19
84024;BME280;74109;45.636;25.582;2024-01-06T06:27:06;94156.89;;;2.47;62.57
84024;BME280;74109;45.636;25.582;2024-01-06T06:29:34;94150.80;;;2.46;62.64
84024;BME280;74109;45.636;25.582;2024-01-06T06:32:02;94147.52;;;2.45;62.42
84024;BME280;74109;45.636;25.582;2024-01-06T06:34:30;94151.20;;;2.47;62.12
84024;BME280;74109;45.636;25.582;2024-01-06T06:36:59;94154.46;;;2.50;62.57
84024;BME280;74109;45.636;25.582;2024-01-06T06:39:27;94161.46;;;2.51;62.87
84024;BME280;74109;45.636;25.582;2024-01-06T06:41:56;94157.71;;;2.51;63.07
84024;BME280;74109;45.636;25.582;2024-01-06T06:44:24;94157.13;;;2.50;63.04
84024;BME280;74109;45.636;25.582;2024-01-06T06:46:52;94154.63;;;2.52;62.89
84024;BME280;74109;45.636;25.582;2024-01-06T06:49:21;94152.39;;;2.60;62.94
84024;BME280;74109;45.636;25.582;2024-01-06T06:51:49;94152.37;;;2.70;62.96
84024;BME280;74109;45.636;25.582;2024-01-06T06:54:18;94151.85;;;2.75;63.09
84024;BME280;74109;45.636;25.582;2024-01-06T06:56:46;94144.77;;;2.78;63.05
84024;BME280;74109;45.636;25.582;2024-01-06T06:59:14;94140.63;;;2.82;62.95
84024;BME280;74109;45.636;25.582;2024-01-06T07:01:42;94137.14;;;2.84;63.01
84024;BME280;74109;45.636;25.582;2024-01-06T07:04:10;94129.89;;;2.88;62.85
84024;BME280;74109;45.636;25.582;2024-01-06T07:06:39;94126.92;;;2.93;62.48
84024;BME280;74109;45.636;25.582;2024-01-06T07:09:07;94127.83;;;2.96;62.76
84024;BME280;74109;45.636;25.582;2024-01-06T07:11:35;94119.70;;;3.00;62.73
84024;BME280;74109;45.636;25.582;2024-01-06T07:14:03;94115.80;;;3.04;62.55
84024;BME280;74109;45.636;25.582;2024-01-06T07:16:32;94123.75;;;3.04;62.72
84024;BME280;74109;45.636;25.582;2024-01-06T07:19:00;94120.92;;;3.07;62.47
84024;BME280;74109;45.636;25.582;2024-01-06T07:21:28;94126.55;;;3.13;62.70
84024;BME280;74109;45.636;25.582;2024-01-06T07:23:57;94127.96;;;3.16;62.66
84024;BME280;74109;45.636;25.582;2024-01-06T07:26:25;94122.61;;;3.23;61.96
84024;BME280;74109;45.636;25.582;2024-01-06T07:28:54;94118.57;;;3.31;62.09
84024;BME280;74109;45.636;25.582;2024-01-06T07:31:22;94116.11;;;3.41;61.81
84024;BME280;74109;45.636;25.582;2024-01-06T07:33:50;94119.63;;;3.50;61.77
84024;BME280;74109;45.636;25.582;2024-01-06T07:36:19;94120.12;;;3.58;61.48
84024;BME280;74109;45.636;25.582;2024-01-06T07:38:47;94115.64;;;3.65;61.40
84024;BME280;74109;45.636;25.582;2024-01-06T07:41:15;94114.70;;;3.75;61.17
84024;BME280;74109;45.636;25.582;2024-01-06T07:43:43;94108.70;;;3.84;60.72
84024;BME280;74109;45.636;25.582;2024-01-06T07:46:12;94109.85;;;3.93;60.51
84024;BME280;74109;45.636;25.582;2024-01-06T07:48:40;94115.33;;;4.04;60.63
84024;BME280;74109;45.636;25.582;2024-01-06T07:51:08;94111.55;;;4.12;60.08
84024;BME280;74109;45.636;25.582;2024-01-06T07:53:36;94106.81;;;4.20;59.56
84024;BME280;74109;45.636;25.582;2024-01-06T07:56:05;94106.59;;;4.30;59.95
84024;BME280;74109;45.636;25.582;2024-01-06T07:58:33;94110.82;;;4.43;59.77
84024;BME280;74109;45.636;25.582;2024-01-06T08:01:01;94111.82;;;4.54;59.45
84024;BME280;74109;45.636;25.582;2024-01-06T08:03:30;94110.14;;;4.61;59.49
84024;BME280;74109;45.636;25.582;2024-01-06T08:05:58;94104.55;;;4.72;59.22
84024;BME280;74109;45.636;25.582;2024-01-06T08:08:27;94106.23;;;4.84;59.16
84024;BME280;74109;45.636;25.582;2024-01-06T08:10:55;94103.66;;;4.92;58.45
84024;BME280;74109;45.636;25.582;2024-01-06T08:13:23;94103.17;;;5.01;58.49
84024;BME280;74109;45.636;25.582;2024-01-06T08:15:51;94108.20;;;5.12;58.33
84024;BME280;74109;45.636;25.582;2024-01-06T08:18:19;94109.43;;;5.20;57.71
84024;BME280;74109;45.636;25.582;2024-01-06T08:20:49;94108.54;;;5.25;57.17
84024;BME280;74109;45.636;25.582;2024-01-06T08:23:17;94103.61;;;5.24;57.18
84024;BME280;74109;45.636;25.582;2024-01-06T08:25:48;94102.58;;;5.28;57.14
84024;BME280;74109;45.636;25.582;2024-01-06T08:28:16;94104.83;;;5.33;57.04
84024;BME280;74109;45.636;25.582;2024-01-06T08:30:46;94100.89;;;5.36;56.63
84024;BME280;74109;45.636;25.582;2024-01-06T08:33:14;94094.70;;;5.41;56.15
84024;BME280;74109;45.636;25.582;2024-01-06T08:35:43;94096.44;;;5.46;55.50
84024;BME280;74109;45.636;25.582;2024-01-06T08:38:12;94102.13;;;5.54;55.87
84024;BME280;74109;45.636;25.582;2024-01-06T08:40:40;94105.48;;;5.61;54.94
84024;BME280;74109;45.636;25.582;2024-01-06T08:43:08;94103.86;;;5.72;54.49
84024;BME280;74109;45.636;25.582;2024-01-06T08:45:37;94107.41;;;5.91;53.70
84024;BME280;74109;45.636;25.582;2024-01-06T08:48:06;94106.26;;;6.20;53.66
84024;BME280;74109;45.636;25.582;2024-01-06T08:50:35;94104.66;;;6.46;53.34
84024;BME280;74109;45.636;25.582;2024-01-06T08:53:03;94090.58;;;6.84;52.05
84024;BME280;74109;45.636;25.582;2024-01-06T08:55:32;94086.88;;;7.24;50.32
84024;BME280;74109;45.636;25.582;2024-01-06T08:58:00;94085.77;;;7.61;48.50
84024;BME280;74109;45.636;25.582;2024-01-06T09:00:29;94083.57;;;7.91;48.71
84024;BME280;74109;45.636;25.582;2024-01-06T09:02:57;94079.87;;;8.04;48.58
84024;BME280;74109;45.636;25.582;2024-01-06T09:05:25;94075.52;;;8.01;47.23
84024;BME280;74109;45.636;25.582;2024-01-06T09:07:54;94080.94;;;8.16;49.09
84024;BME280;74109;45.636;25.582;2024-01-06T09:10:23;94083.75;;;8.40;48.92
84024;BME280;74109;45.636;25.582;2024-01-06T09:12:51;94084.94;;;8.56;47.83
84024;BME280;74109;45.636;25.582;2024-01-06T09:15:19;94079.23;;;8.60;47.45
84024;BME280;74109;45.636;25.582;2024-01-06T09:17:47;94071.70;;;8.54;46.85
84024;BME280;74109;45.636;25.582;2024-01-06T09:20:16;94066.30;;;8.50;47.04
84024;BME280;74109;45.636;25.582;2024-01-06T09:22:45;94065.67;;;8.47;46.59
84024;BME280;74109;45.636;25.582;2024-01-06T09:25:14;94066.33;;;8.44;46.04
84024;BME280;74109;45.636;25.582;2024-01-06T09:27:42;94060.63;;;8.40;46.91
84024;BME280;74109;45.636;25.582;2024-01-06T09:30:10;94052.38;;;8.27;45.79
84024;BME280;74109;45.636;25.582;2024-01-06T09:32:39;94050.05;;;8.15;46.02
84024;BME280;74109;45.636;25.582;2024-01-06T09:35:07;94046.66;;;8.07;46.96
84024;BME280;74109;45.636;25.582;2024-01-06T09:37:36;94049.81;;;8.00;46.96
84024;BME280;74109;45.636;25.582;2024-01-06T09:40:04;94047.38;;;7.93;46.00
84024;BME280;74109;45.636;25.582;2024-01-06T09:42:33;94044.75;;;7.87;46.32
84024;BME280;74109;45.636;25.582;2024-01-06T09:45:01;94039.84;;;7.84;46.77
84024;BME280;74109;45.636;25.582;2024-01-06T09:47:34;94035.34;;;7.77;46.89
84024;BME280;74109;45.636;25.582;2024-01-06T09:50:03;94029.81;;;7.70;46.96
84024;BME280;74109;45.636;25.582;2024-01-06T09:52:39;94015.89;;;7.63;46.73
84024;BME280;74109;45.636;25.582;2024-01-06T09:55:12;94011.95;;;7.59;47.25
84024;BME280;74109;45.636;25.582;2024-01-06T09:57:40;94009.47;;;7.54;47.30
84024;BME280;74109;45.636;25.582;2024-01-06T10:00:08;94012.41;;;7.46;47.26
84024;BME280;74109;45.636;25.582;2024-01-06T10:02:40;94014.20;;;7.40;48.25
84024;BME280;74109;45.636;25.582;2024-01-06T10:05:09;94011.77;;;7.33;48.66
84024;BME280;74109;45.636;25.582;2024-01-06T10:07:38;94016.42;;;7.29;48.98
84024;BME280;74109;45.636;25.582;2024-01-06T10:10:07;94015.80;;;7.23;48.98
84024;BME280;74109;45.636;25.582;2024-01-06T10:12:37;94018.20;;;7.16;48.80
84024;BME280;74109;45.636;25.582;2024-01-06T10:15:07;94011.02;;;7.09;48.82
84024;BME280;74109;45.636;25.582;2024-01-06T10:17:39;94006.91;;;7.04;49.29
84024;BME280;74109;45.636;25.582;2024-01-06T10:20:09;94000.02;;;7.04;49.51
84024;BME280;74109;45.636;25.582;2024-01-06T10:22:41;93991.00;;;7.04;49.78
84024;BME280;74109;45.636;25.582;2024-01-06T10:25:10;93994.05;;;7.05;49.79
84024;BME280;74109;45.636;25.582;2024-01-06T10:27:39;93989.55;;;7.05;49.97
84024;BME280;74109;45.636;25.582;2024-01-06T10:30:09;93985.95;;;7.05;49.75
84024;BME280;74109;45.636;25.582;2024-01-06T10:32:39;93978.83;;;7.02;49.74
84024;BME280;74109;45.636;25.582;2024-01-06T10:35:07;93968.58;;;6.98;49.22
84024;BME280;74109;45.636;25.582;2024-01-06T10:37:36;93965.57;;;6.95;49.80
84024;BME280;74109;45.636;25.582;2024-01-06T10:42:35;93951.45;;;6.90;50.00
84024;BME280;74109;45.636;25.582;2024-01-06T10:45:06;93948.89;;;6.87;50.04
84024;BME280;74109;45.636;25.582;2024-01-06T10:47:36;93950.55;;;6.86;50.51
84024;BME280;74109;45.636;25.582;2024-01-06T10:50:05;93953.81;;;6.84;50.25
84024;BME280;74109;45.636;25.582;2024-01-06T10:52:34;93953.46;;;6.84;50.30
84024;BME280;74109;45.636;25.582;2024-01-06T10:55:05;93943.73;;;6.86;50.34
84024;BME280;74109;45.636;25.582;2024-01-06T10:57:33;93937.01;;;6.88;50.59
84024;BME280;74109;45.636;25.582;2024-01-06T11:00:02;93935.13;;;6.90;50.58
84024;BME280;74109;45.636;25.582;2024-01-06T11:02:34;93923.95;;;6.90;51.02
84024;BME280;74109;45.636;25.582;2024-01-06T11:05:03;93925.34;;;6.91;51.09
84024;BME280;74109;45.636;25.582;2024-01-06T11:07:36;93927.38;;;6.93;51.03
84024;BME280;74109;45.636;25.582;2024-01-06T11:10:15;93923.58;;;6.95;50.89
84024;BME280;74109;45.636;25.582;2024-01-06T11:12:44;93924.91;;;6.96;50.31
84024;BME280;74109;45.636;25.582;2024-01-06T11:15:39;93921.27;;;6.94;50.35
84024;BME280;74109;45.636;25.582;2024-01-06T11:18:07;93919.34;;;6.98;50.69
84024;BME280;74109;45.636;25.582;2024-01-06T11:20:35;93920.16;;;7.05;50.98
84024;BME280;74109;45.636;25.582;2024-01-06T11:23:18;93919.83;;;7.13;51.08
84024;BME280;74109;45.636;25.582;2024-01-06T11:25:48;93913.23;;;7.22;51.03
84024;BME280;74109;45.636;25.582;2024-01-06T11:28:17;93904.02;;;7.27;50.67
84024;BME280;74109;45.636;25.582;2024-01-06T11:30:45;93895.75;;;7.32;50.39
84024;BME280;74109;45.636;25.582;2024-01-06T11:33:13;93894.61;;;7.38;50.41
84024;BME280;74109;45.636;25.582;2024-01-06T11:35:43;93891.56;;;7.44;50.75
84024;BME280;74109;45.636;25.582;2024-01-06T11:38:11;93891.81;;;7.51;50.65
84024;BME280;74109;45.636;25.582;2024-01-06T11:40:40;93888.92;;;7.60;50.26
84024;BME280;74109;45.636;25.582;2024-01-06T11:43:10;93886.82;;;7.69;50.53
84024;BME280;74109;45.636;25.582;2024-01-06T11:45:41;93877.00;;;7.77;50.00
84024;BME280;74109;45.636;25.582;2024-01-06T11:48:10;93871.67;;;7.83;50.16
84024;BME280;74109;45.636;25.582;2024-01-06T11:50:42;93869.70;;;7.91;50.56
84024;BME280;74109;45.636;25.582;2024-01-06T11:53:10;93865.65;;;7.97;50.56
84024;BME280;74109;45.636;25.582;2024-01-06T11:55:39;93864.48;;;8.01;50.71
84024;BME280;74109;45.636;25.582;2024-01-06T11:58:07;93864.23;;;8.05;50.69
84024;BME280;74109;45.636;25.582;2024-01-06T12:00:35;93855.44;;;8.10;50.47
84024;BME280;74109;45.636;25.582;2024-01-06T12:03:08;93854.61;;;8.12;50.39
84024;BME280;74109;45.636;25.582;2024-01-06T12:05:37;93851.02;;;8.18;50.38
84024;BME280;74109;45.636;25.582;2024-01-06T12:08:05;93856.66;;;8.21;50.25
84024;BME280;74109;45.636;25.582;2024-01-06T12:10:36;93852.36;;;8.24;50.12
84024;BME280;74109;45.636;25.582;2024-01-06T12:13:06;93854.02;;;8.24;49.81
84024;BME280;74109;45.636;25.582;2024-01-06T12:15:40;93858.41;;;8.25;49.91
84024;BME280;74109;45.636;25.582;2024-01-06T12:18:09;93854.68;;;8.23;49.74
84024;BME280;74109;45.636;25.582;2024-01-06T12:20:38;93850.61;;;8.24;49.90
84024;BME280;74109;45.636;25.582;2024-01-06T12:23:06;93857.67;;;8.24;49.79
84024;BME280;74109;45.636;25.582;2024-01-06T12:25:35;93858.09;;;8.25;48.77
84024;BME280;74109;45.636;25.582;2024-01-06T12:28:08;93862.95;;;8.27;48.11
84024;BME280;74109;45.636;25.582;2024-01-06T12:30:38;93859.40;;;8.27;48.07
84024;BME280;74109;45.636;25.582;2024-01-06T12:33:07;93861.98;;;8.30;48.46
84024;BME280;74109;45.636;25.582;2024-01-06T12:35:35;93866.49;;;8.32;48.31
84024;BME280;74109;45.636;25.582;2024-01-06T12:38:04;93863.52;;;8.32;47.92
84024;BME280;74109;45.636;25.582;2024-01-06T12:40:36;93864.30;;;8.34;48.05
84024;BME280;74109;45.636;25.582;2024-01-06T12:43:05;93861.53;;;8.39;48.12
84024;BME280;74109;45.636;25.582;2024-01-06T12:45:34;93861.66;;;8.44;47.66
84024;BME280;74109;45.636;25.582;2024-01-06T12:48:02;93859.50;;;8.48;46.91
84024;BME280;74109;45.636;25.582;2024-01-06T12:50:31;93853.83;;;8.52;46.99
84024;BME280;74109;45.636;25.582;2024-01-06T12:52:59;93855.64;;;8.58;46.27
84024;BME280;74109;45.636;25.582;2024-01-06T12:55:27;93856.32;;;8.63;45.74
84024;BME280;74109;45.636;25.582;2024-01-06T12:57:55;93854.20;;;8.63;45.41
84024;BME280;74109;45.636;25.582;2024-01-06T13:00:24;93854.00;;;8.63;46.20
84024;BME280;74109;45.636;25.582;2024-01-06T13:02:52;93854.56;;;8.62;44.95
84024;BME280;74109;45.636;25.582;2024-01-06T13:05:20;93855.23;;;8.62;45.62
84024;BME280;74109;45.636;25.582;2024-01-06T13:07:49;93850.59;;;8.61;45.30
84024;BME280;74109;45.636;25.582;2024-01-06T13:10:17;93851.37;;;8.64;45.80